Aviation Digital Data Service (ADDS)

Output produced by TAFs form (0924 UTC 19 August 2017)
found at http://aviationweather.gov/adds/tafs/
 
KMAF 190520Z 1906/2006 15011KT P6SM SCT100